sensor_id;sensor_type;location;lat;lon;timestamp;pressure;altitude;pressure_sealevel;temperature;humidity
9855;BME280;4966;48.112;9.282;2022-11-15T00:01:40;94596.31;;;5.06;92.17
9855;BME280;4966;48.112;9.282;2022-11-15T00:04:06;94584.53;;;5.02;92.42
9855;BME280;4966;48.112;9.282;2022-11-15T00:06:32;94588.91;;;5.11;92.16
9855;BME280;4966;48.112;9.282;2022-11-15T00:08:58;94590.78;;;4.88;92.06
9855;BME280;4966;48.112;9.282;2022-11-15T00:11:24;94582.94;;;4.64;92.41
9855;BME280;4966;48.112;9.282;2022-11-15T00:13:50;94587.66;;;4.59;92.30
9855;BME280;4966;48.112;9.282;2022-11-15T00:16:15;94596.09;;;4.80;92.83
9855;BME280;4966;48.112;9.282;2022-11-15T00:18:40;94579.84;;;4.71;92.02
9855;BME280;4966;48.112;9.282;2022-11-15T00:21:09;94581.25;;;4.55;92.11
9855;BME280;4966;48.112;9.282;2022-11-15T00:23:35;94580.75;;;4.66;91.90
9855;BME280;4966;48.112;9.282;2022-11-15T00:26:00;94569.63;;;4.45;92.25
9855;BME280;4966;48.112;9.282;2022-11-15T00:28:26;94565.72;;;4.52;91.98
9855;BME280;4966;48.112;9.282;2022-11-15T00:30:51;94571.31;;;4.41;92.33
9855;BME280;4966;48.112;9.282;2022-11-15T00:33:17;94563.53;;;4.26;93.21
9855;BME280;4966;48.112;9.282;2022-11-15T00:35:43;94571.94;;;4.38;93.18
9855;BME280;4966;48.112;9.282;2022-11-15T00:38:08;94573.22;;;4.27;92.94
9855;BME280;4966;48.112;9.282;2022-11-15T00:40:34;94579.50;;;4.22;92.90
9855;BME280;4966;48.112;9.282;2022-11-15T00:42:59;94569.84;;;4.21;92.92
9855;BME280;4966;48.112;9.282;2022-11-15T00:45:25;94569.47;;;4.14;93.12
9855;BME280;4966;48.112;9.282;2022-11-15T00:47:51;94565.16;;;4.27;92.71
9855;BME280;4966;48.112;9.282;2022-11-15T00:50:16;94555.16;;;4.41;93.01
9855;BME280;4966;48.112;9.282;2022-11-15T00:52:42;94555.66;;;4.43;92.50
9855;BME280;4966;48.112;9.282;2022-11-15T00:55:13;94551.47;;;4.23;92.63
9855;BME280;4966;48.112;9.282;2022-11-15T00:57:39;94554.50;;;4.22;93.02
9855;BME280;4966;48.112;9.282;2022-11-15T01:00:05;94554.19;;;4.10;93.74
9855;BME280;4966;48.112;9.282;2022-11-15T01:02:31;94557.56;;;4.29;93.19
9855;BME280;4966;48.112;9.282;2022-11-15T01:04:56;94553.47;;;4.32;92.86
9855;BME280;4966;48.112;9.282;2022-11-15T01:07:22;94556.97;;;4.32;92.93
9855;BME280;4966;48.112;9.282;2022-11-15T01:09:47;94552.16;;;4.43;92.82
9855;BME280;4966;48.112;9.282;2022-11-15T01:12:12;94554.81;;;3.93;95.15
9855;BME280;4966;48.112;9.282;2022-11-15T01:14:38;94564.75;;;3.92;97.36
9855;BME280;4966;48.112;9.282;2022-11-15T01:17:03;94557.06;;;4.27;95.58
9855;BME280;4966;48.112;9.282;2022-11-15T01:19:28;94552.06;;;4.48;94.07
9855;BME280;4966;48.112;9.282;2022-11-15T01:21:54;94545.59;;;4.35;93.70
9855;BME280;4966;48.112;9.282;2022-11-15T01:24:19;94549.28;;;4.25;94.46
9855;BME280;4966;48.112;9.282;2022-11-15T01:26:44;94551.78;;;4.22;94.70
9855;BME280;4966;48.112;9.282;2022-11-15T01:29:10;94540.09;;;4.40;94.33
9855;BME280;4966;48.112;9.282;2022-11-15T01:31:35;94544.56;;;4.45;92.69
9855;BME280;4966;48.112;9.282;2022-11-15T01:34:00;94537.19;;;4.51;91.33
9855;BME280;4966;48.112;9.282;2022-11-15T01:36:26;94543.00;;;4.30;91.74
9855;BME280;4966;48.112;9.282;2022-11-15T01:38:58;94538.34;;;4.22;92.25
9855;BME280;4966;48.112;9.282;2022-11-15T01:41:27;94535.16;;;4.20;92.60
9855;BME280;4966;48.112;9.282;2022-11-15T01:43:55;94535.16;;;4.06;93.08
9855;BME280;4966;48.112;9.282;2022-11-15T01:48:46;94527.47;;;4.13;93.15
9855;BME280;4966;48.112;9.282;2022-11-15T01:51:13;94534.66;;;4.04;93.95
9855;BME280;4966;48.112;9.282;2022-11-15T01:53:43;94527.25;;;4.23;93.20
9855;BME280;4966;48.112;9.282;2022-11-15T01:56:17;94527.84;;;4.20;93.22
9855;BME280;4966;48.112;9.282;2022-11-15T01:58:44;94521.16;;;4.32;93.45
9855;BME280;4966;48.112;9.282;2022-11-15T02:01:12;94514.50;;;4.29;93.28
9855;BME280;4966;48.112;9.282;2022-11-15T02:03:52;94526.72;;;4.35;92.86
9855;BME280;4966;48.112;9.282;2022-11-15T02:06:21;94513.84;;;4.46;91.24
9855;BME280;4966;48.112;9.282;2022-11-15T02:08:46;94522.47;;;4.34;92.27
9855;BME280;4966;48.112;9.282;2022-11-15T02:11:12;94515.78;;;4.18;92.31
9855;BME280;4966;48.112;9.282;2022-11-15T02:13:38;94503.72;;;4.29;92.54
9855;BME280;4966;48.112;9.282;2022-11-15T02:19:21;94496.22;;;4.26;93.04
9855;BME280;4966;48.112;9.282;2022-11-15T02:27:26;94493.34;;;4.22;92.95
9855;BME280;4966;48.112;9.282;2022-11-15T02:30:34;94491.78;;;4.21;93.48
9855;BME280;4966;48.112;9.282;2022-11-15T02:36:01;94487.09;;;4.50;91.76
9855;BME280;4966;48.112;9.282;2022-11-15T02:41:30;94482.56;;;4.36;91.41
9855;BME280;4966;48.112;9.282;2022-11-15T02:44:02;94487.28;;;4.17;92.41
9855;BME280;4966;48.112;9.282;2022-11-15T02:46:35;94471.72;;;4.14;92.36
9855;BME280;4966;48.112;9.282;2022-11-15T02:49:21;94482.09;;;4.07;92.64
9855;BME280;4966;48.112;9.282;2022-11-15T02:51:49;94480.13;;;4.12;93.58
9855;BME280;4966;48.112;9.282;2022-11-15T02:54:29;94480.38;;;4.24;92.72
9855;BME280;4966;48.112;9.282;2022-11-15T02:57:00;94467.59;;;4.30;92.38
9855;BME280;4966;48.112;9.282;2022-11-15T03:00:06;94466.84;;;4.16;91.97
9855;BME280;4966;48.112;9.282;2022-11-15T03:18:41;94444.88;;;3.86;92.34
9855;BME280;4966;48.112;9.282;2022-11-15T03:21:10;94431.72;;;3.84;92.51
9855;BME280;4966;48.112;9.282;2022-11-15T03:23:38;94435.56;;;3.92;92.59
9855;BME280;4966;48.112;9.282;2022-11-15T03:26:07;94427.69;;;4.10;92.20
9855;BME280;4966;48.112;9.282;2022-11-15T03:28:41;94417.34;;;3.89;92.35
9855;BME280;4966;48.112;9.282;2022-11-15T03:31:10;94420.25;;;3.79;93.17
9855;BME280;4966;48.112;9.282;2022-11-15T03:33:56;94411.56;;;3.82;92.46
9855;BME280;4966;48.112;9.282;2022-11-15T03:36:23;94419.94;;;3.94;91.87
9855;BME280;4966;48.112;9.282;2022-11-15T03:38:53;94410.34;;;4.02;91.65
9855;BME280;4966;48.112;9.282;2022-11-15T03:41:58;94423.63;;;3.84;91.79
9855;BME280;4966;48.112;9.282;2022-11-15T03:44:46;94411.41;;;3.51;92.79
9855;BME280;4966;48.112;9.282;2022-11-15T03:47:38;94426.22;;;3.20;97.21
9855;BME280;4966;48.112;9.282;2022-11-15T03:50:10;94414.22;;;3.59;94.30
9855;BME280;4966;48.112;9.282;2022-11-15T03:52:38;94413.59;;;3.62;93.10
9855;BME280;4966;48.112;9.282;2022-11-15T03:55:08;94422.78;;;3.48;93.00
9855;BME280;4966;48.112;9.282;2022-11-15T03:57:33;94419.88;;;3.58;93.37
9855;BME280;4966;48.112;9.282;2022-11-15T03:59:59;94416.91;;;3.59;93.51
9855;BME280;4966;48.112;9.282;2022-11-15T04:02:24;94414.16;;;3.73;93.54
9855;BME280;4966;48.112;9.282;2022-11-15T04:04:50;94412.97;;;3.79;93.46
9855;BME280;4966;48.112;9.282;2022-11-15T04:07:15;94405.09;;;3.83;93.57
9855;BME280;4966;48.112;9.282;2022-11-15T04:09:40;94403.13;;;3.75;94.09
9855;BME280;4966;48.112;9.282;2022-11-15T04:12:24;94401.94;;;3.67;94.55
9855;BME280;4966;48.112;9.282;2022-11-15T04:15:13;94404.91;;;3.66;94.95
9855;BME280;4966;48.112;9.282;2022-11-15T04:17:47;94404.91;;;3.79;94.83
9855;BME280;4966;48.112;9.282;2022-11-15T04:20:22;94417.84;;;3.77;94.79
9855;BME280;4966;48.112;9.282;2022-11-15T04:23:09;94411.44;;;4.01;94.99
9855;BME280;4966;48.112;9.282;2022-11-15T04:25:55;94407.19;;;4.22;92.86
9855;BME280;4966;48.112;9.282;2022-11-15T04:28:22;94397.91;;;4.29;91.39
9855;BME280;4966;48.112;9.282;2022-11-15T04:30:47;94400.03;;;4.18;93.23
9855;BME280;4966;48.112;9.282;2022-11-15T04:33:13;94397.34;;;4.18;93.57
9855;BME280;4966;48.112;9.282;2022-11-15T04:35:39;94390.25;;;4.22;94.03
9855;BME280;4966;48.112;9.282;2022-11-15T04:38:06;94382.56;;;4.29;94.24
9855;BME280;4966;48.112;9.282;2022-11-15T04:40:32;94391.13;;;4.31;94.28
9855;BME280;4966;48.112;9.282;2022-11-15T04:42:58;94398.63;;;4.20;94.81
9855;BME280;4966;48.112;9.282;2022-11-15T04:45:23;94381.81;;;4.15;95.45
9855;BME280;4966;48.112;9.282;2022-11-15T04:47:49;94382.22;;;4.31;94.96
9855;BME280;4966;48.112;9.282;2022-11-15T04:50:15;94388.19;;;4.41;94.92
9855;BME280;4966;48.112;9.282;2022-11-15T04:52:52;94391.47;;;4.61;94.05
9855;BME280;4966;48.112;9.282;2022-11-15T04:55:18;94390.69;;;4.60;94.06
9855;BME280;4966;48.112;9.282;2022-11-15T04:57:43;94397.38;;;4.63;93.87
9855;BME280;4966;48.112;9.282;2022-11-15T05:00:11;94389.44;;;4.66;94.10
9855;BME280;4966;48.112;9.282;2022-11-15T05:02:37;94393.69;;;4.59;94.30
9855;BME280;4966;48.112;9.282;2022-11-15T05:05:21;94396.88;;;4.61;94.51
9855;BME280;4966;48.112;9.282;2022-11-15T05:07:47;94388.66;;;4.66;94.34
9855;BME280;4966;48.112;9.282;2022-11-15T05:10:12;94399.31;;;4.71;94.29
9855;BME280;4966;48.112;9.282;2022-11-15T05:12:38;94385.53;;;4.73;94.41
9855;BME280;4966;48.112;9.282;2022-11-15T05:15:03;94384.06;;;4.89;93.44
9855;BME280;4966;48.112;9.282;2022-11-15T05:17:29;94385.97;;;4.97;93.50
9855;BME280;4966;48.112;9.282;2022-11-15T05:19:54;94376.00;;;4.98;92.70
9855;BME280;4966;48.112;9.282;2022-11-15T05:22:20;94387.81;;;4.79;93.27
9855;BME280;4966;48.112;9.282;2022-11-15T05:24:46;94388.16;;;4.86;92.82
9855;BME280;4966;48.112;9.282;2022-11-15T05:27:11;94380.91;;;4.96;92.44
9855;BME280;4966;48.112;9.282;2022-11-15T05:29:37;94378.78;;;4.84;92.56
9855;BME280;4966;48.112;9.282;2022-11-15T05:32:04;94373.47;;;4.70;92.67
9855;BME280;4966;48.112;9.282;2022-11-15T05:34:30;94367.41;;;4.64;92.41
9855;BME280;4966;48.112;9.282;2022-11-15T05:36:56;94378.75;;;4.53;92.50
9855;BME280;4966;48.112;9.282;2022-11-15T05:39:21;94374.34;;;4.34;92.58
9855;BME280;4966;48.112;9.282;2022-11-15T05:41:54;94380.84;;;3.97;95.30
9855;BME280;4966;48.112;9.282;2022-11-15T05:44:22;94386.44;;;4.23;93.41
9855;BME280;4966;48.112;9.282;2022-11-15T05:46:49;94376.41;;;4.37;92.71
9855;BME280;4966;48.112;9.282;2022-11-15T05:49:20;94375.06;;;4.26;92.24
9855;BME280;4966;48.112;9.282;2022-11-15T05:51:48;94364.00;;;4.28;92.12
9855;BME280;4966;48.112;9.282;2022-11-15T05:54:15;94361.97;;;4.33;91.54
9855;BME280;4966;48.112;9.282;2022-11-15T05:56:41;94360.06;;;4.11;92.02
9855;BME280;4966;48.112;9.282;2022-11-15T05:59:12;94358.53;;;3.96;92.46
9855;BME280;4966;48.112;9.282;2022-11-15T06:01:41;94357.84;;;3.91;92.60
9855;BME280;4966;48.112;9.282;2022-11-15T06:04:08;94363.44;;;3.80;93.40
9855;BME280;4966;48.112;9.282;2022-11-15T06:06:34;94356.06;;;3.86;92.56
9855;BME280;4966;48.112;9.282;2022-11-15T06:08:59;94367.25;;;3.79;93.43
9855;BME280;4966;48.112;9.282;2022-11-15T06:11:25;94361.34;;;3.91;93.53
9855;BME280;4966;48.112;9.282;2022-11-15T06:13:50;94369.44;;;4.14;92.03
9855;BME280;4966;48.112;9.282;2022-11-15T06:16:16;94367.19;;;4.07;91.72
9855;BME280;4966;48.112;9.282;2022-11-15T06:18:41;94368.53;;;3.82;92.77
9855;BME280;4966;48.112;9.282;2022-11-15T06:21:07;94368.13;;;3.89;92.06
9855;BME280;4966;48.112;9.282;2022-11-15T06:23:34;94379.06;;;3.92;91.62
9855;BME280;4966;48.112;9.282;2022-11-15T06:26:00;94371.94;;;3.74;92.05
9855;BME280;4966;48.112;9.282;2022-11-15T06:28:30;94369.25;;;3.74;92.02
9855;BME280;4966;48.112;9.282;2022-11-15T06:31:01;94371.84;;;3.79;91.87
9855;BME280;4966;48.112;9.282;2022-11-15T06:33:27;94374.63;;;3.74;92.32
9855;BME280;4966;48.112;9.282;2022-11-15T06:35:52;94363.75;;;3.79;91.59
9855;BME280;4966;48.112;9.282;2022-11-15T06:38:17;94367.22;;;3.93;90.85
9855;BME280;4966;48.112;9.282;2022-11-15T06:40:43;94363.34;;;3.86;91.01
9855;BME280;4966;48.112;9.282;2022-11-15T06:43:08;94371.94;;;3.74;91.38
9855;BME280;4966;48.112;9.282;2022-11-15T06:45:34;94371.25;;;3.54;91.69
9855;BME280;4966;48.112;9.282;2022-11-15T06:47:59;94372.19;;;3.50;92.51
9855;BME280;4966;48.112;9.282;2022-11-15T06:50:25;94363.88;;;3.74;91.92
9855;BME280;4966;48.112;9.282;2022-11-15T06:52:50;94360.97;;;3.84;90.69
9855;BME280;4966;48.112;9.282;2022-11-15T06:55:15;94364.84;;;3.78;90.80
9855;BME280;4966;48.112;9.282;2022-11-15T06:57:51;94366.75;;;3.63;91.86
9855;BME280;4966;48.112;9.282;2022-11-15T07:00:21;94361.38;;;3.63;92.70
9855;BME280;4966;48.112;9.282;2022-11-15T07:02:47;94357.13;;;3.62;92.65
9855;BME280;4966;48.112;9.282;2022-11-15T07:05:14;94357.16;;;3.85;92.81
9855;BME280;4966;48.112;9.282;2022-11-15T07:07:40;94339.66;;;4.10;91.44
9855;BME280;4966;48.112;9.282;2022-11-15T07:10:06;94353.91;;;4.11;92.29
9855;BME280;4966;48.112;9.282;2022-11-15T07:12:31;94346.47;;;3.94;93.47
9855;BME280;4966;48.112;9.282;2022-11-15T07:14:56;94347.16;;;3.99;94.61
9855;BME280;4966;48.112;9.282;2022-11-15T07:17:22;94342.88;;;3.98;95.35
9855;BME280;4966;48.112;9.282;2022-11-15T07:19:47;94345.50;;;4.35;95.40
9855;BME280;4966;48.112;9.282;2022-11-15T07:22:13;94347.66;;;4.46;94.16
9855;BME280;4966;48.112;9.282;2022-11-15T07:24:38;94360.50;;;4.50;94.62
9855;BME280;4966;48.112;9.282;2022-11-15T07:27:03;94358.16;;;4.79;96.21
9855;BME280;4966;48.112;9.282;2022-11-15T07:29:29;94353.06;;;5.09;95.80
9855;BME280;4966;48.112;9.282;2022-11-15T07:31:54;94358.50;;;5.26;94.07
9855;BME280;4966;48.112;9.282;2022-11-15T07:34:20;94348.59;;;5.53;94.34
9855;BME280;4966;48.112;9.282;2022-11-15T07:36:45;94357.34;;;5.59;94.25
9855;BME280;4966;48.112;9.282;2022-11-15T07:39:10;94346.75;;;5.80;92.80
9855;BME280;4966;48.112;9.282;2022-11-15T07:41:37;94342.19;;;6.06;90.07
9855;BME280;4966;48.112;9.282;2022-11-15T07:44:03;94339.66;;;6.18;89.09
9855;BME280;4966;48.112;9.282;2022-11-15T07:46:29;94334.72;;;6.38;89.46
9855;BME280;4966;48.112;9.282;2022-11-15T07:48:54;94333.44;;;6.35;90.10
9855;BME280;4966;48.112;9.282;2022-11-15T07:51:19;94329.97;;;6.35;86.30
9855;BME280;4966;48.112;9.282;2022-11-15T07:53:45;94334.09;;;6.24;87.16
9855;BME280;4966;48.112;9.282;2022-11-15T07:56:10;94331.56;;;6.10;87.87
9855;BME280;4966;48.112;9.282;2022-11-15T07:58:36;94333.13;;;6.28;90.39
9855;BME280;4966;48.112;9.282;2022-11-15T08:01:06;94325.13;;;6.58;90.21
9855;BME280;4966;48.112;9.282;2022-11-15T08:03:32;94328.13;;;6.74;91.68
9855;BME280;4966;48.112;9.282;2022-11-15T08:05:57;94331.88;;;6.99;90.98
9855;BME280;4966;48.112;9.282;2022-11-15T08:08:22;94319.59;;;7.01;90.54
9855;BME280;4966;48.112;9.282;2022-11-15T08:10:48;94318.41;;;6.81;90.78
9855;BME280;4966;48.112;9.282;2022-11-15T08:13:14;94326.25;;;7.13;90.89
9855;BME280;4966;48.112;9.282;2022-11-15T08:15:39;94320.13;;;6.95;89.62
9855;BME280;4966;48.112;9.282;2022-11-15T08:18:09;94334.72;;;7.11;90.36
9855;BME280;4966;48.112;9.282;2022-11-15T08:20:36;94326.81;;;7.36;89.19
9855;BME280;4966;48.112;9.282;2022-11-15T08:23:03;94322.28;;;7.49;89.01
9855;BME280;4966;48.112;9.282;2022-11-15T08:25:30;94312.19;;;7.58;88.58
9855;BME280;4966;48.112;9.282;2022-11-15T08:27:59;94318.81;;;7.69;88.53
9855;BME280;4966;48.112;9.282;2022-11-15T08:30:25;94313.31;;;7.57;88.06
9855;BME280;4966;48.112;9.282;2022-11-15T08:32:51;94321.38;;;7.65;89.34
9855;BME280;4966;48.112;9.282;2022-11-15T08:35:17;94309.84;;;7.77;89.24
9855;BME280;4966;48.112;9.282;2022-11-15T08:37:43;94309.72;;;7.95;88.10
9855;BME280;4966;48.112;9.282;2022-11-15T08:40:09;94314.34;;;7.94;88.21
9855;BME280;4966;48.112;9.282;2022-11-15T08:42:35;94317.72;;;8.12;88.47
9855;BME280;4966;48.112;9.282;2022-11-15T08:45:01;94311.94;;;8.35;88.46
9855;BME280;4966;48.112;9.282;2022-11-15T08:47:26;94301.06;;;8.77;85.75
9855;BME280;4966;48.112;9.282;2022-11-15T08:49:52;94290.47;;;8.96;85.06
9855;BME280;4966;48.112;9.282;2022-11-15T08:52:18;94296.69;;;9.09;82.07
9855;BME280;4966;48.112;9.282;2022-11-15T08:54:43;94285.53;;;9.23;81.96
9855;BME280;4966;48.112;9.282;2022-11-15T08:57:08;94290.94;;;9.23;83.31
9855;BME280;4966;48.112;9.282;2022-11-15T08:59:35;94288.13;;;9.31;83.24
9855;BME280;4966;48.112;9.282;2022-11-15T09:02:00;94286.75;;;9.37;82.30
9855;BME280;4966;48.112;9.282;2022-11-15T09:04:26;94276.31;;;8.90;84.33
9855;BME280;4966;48.112;9.282;2022-11-15T09:06:51;94283.50;;;9.20;84.81
9855;BME280;4966;48.112;9.282;2022-11-15T09:09:16;94271.13;;;9.59;83.24
9855;BME280;4966;48.112;9.282;2022-11-15T09:11:42;94277.34;;;9.72;82.34
9855;BME280;4966;48.112;9.282;2022-11-15T09:14:10;94273.03;;;9.83;83.35
9855;BME280;4966;48.112;9.282;2022-11-15T09:16:36;94263.31;;;9.82;82.50
9855;BME280;4966;48.112;9.282;2022-11-15T09:19:01;94269.59;;;9.98;81.69
9855;BME280;4966;48.112;9.282;2022-11-15T09:21:28;94268.34;;;9.96;81.79
9855;BME280;4966;48.112;9.282;2022-11-15T09:23:54;94265.50;;;10.05;81.19
9855;BME280;4966;48.112;9.282;2022-11-15T09:26:19;94263.63;;;10.33;80.99
9855;BME280;4966;48.112;9.282;2022-11-15T09:28:45;94272.03;;;10.56;80.45
9855;BME280;4966;48.112;9.282;2022-11-15T09:31:10;94260.56;;;10.79;79.52
9855;BME280;4966;48.112;9.282;2022-11-15T09:33:36;94259.97;;;11.33;76.33
9855;BME280;4966;48.112;9.282;2022-11-15T09:36:07;94273.13;;;10.99;78.64
9855;BME280;4966;48.112;9.282;2022-11-15T09:38:32;94262.75;;;11.37;79.24
9855;BME280;4966;48.112;9.282;2022-11-15T09:44:37;94258.97;;;11.57;78.47
9855;BME280;4966;48.112;9.282;2022-11-15T09:47:05;94255.78;;;11.71;77.95
9855;BME280;4966;48.112;9.282;2022-11-15T09:49:32;94240.44;;;11.47;78.92
9855;BME280;4966;48.112;9.282;2022-11-15T09:51:58;94244.19;;;11.58;77.65
9855;BME280;4966;48.112;9.282;2022-11-15T09:54:39;94248.41;;;11.56;78.18
9855;BME280;4966;48.112;9.282;2022-11-15T09:57:11;94251.34;;;11.15;81.29
9855;BME280;4966;48.112;9.282;2022-11-15T10:04:39;94247.41;;;10.97;83.77
9855;BME280;4966;48.112;9.282;2022-11-15T10:07:26;94239.41;;;11.20;82.17
9855;BME280;4966;48.112;9.282;2022-11-15T10:09:55;94235.13;;;11.03;83.82
9855;BME280;4966;48.112;9.282;2022-11-15T10:12:25;94232.28;;;11.15;83.46
9855;BME280;4966;48.112;9.282;2022-11-15T10:15:02;94232.47;;;11.22;84.35
9855;BME280;4966;48.112;9.282;2022-11-15T10:21:19;94235.94;;;11.55;84.91
9855;BME280;4966;48.112;9.282;2022-11-15T10:23:21;94230.81;;;12.04;82.14
9855;BME280;4966;48.112;9.282;2022-11-15T10:25:46;94223.00;;;12.03;83.41
9855;BME280;4966;48.112;9.282;2022-11-15T10:28:28;94216.41;;;12.43;82.38
9855;BME280;4966;48.112;9.282;2022-11-15T10:30:56;94219.81;;;12.40;81.70
9855;BME280;4966;48.112;9.282;2022-11-15T10:33:34;94209.75;;;12.86;79.37
9855;BME280;4966;48.112;9.282;2022-11-15T10:41:36;94187.44;;;13.04;75.26
9855;BME280;4966;48.112;9.282;2022-11-15T10:46:35;94194.25;;;13.40;70.96
9855;BME280;4966;48.112;9.282;2022-11-15T10:56:59;94174.34;;;13.96;68.15
9855;BME280;4966;48.112;9.282;2022-11-15T10:59:30;94175.22;;;14.04;68.49
9855;BME280;4966;48.112;9.282;2022-11-15T11:01:57;94173.00;;;13.83;68.46
9855;BME280;4966;48.112;9.282;2022-11-15T11:04:23;94176.16;;;13.85;69.50
9855;BME280;4966;48.112;9.282;2022-11-15T11:06:54;94173.88;;;13.91;69.64
9855;BME280;4966;48.112;9.282;2022-11-15T11:09:32;94175.59;;;13.72;70.42
9855;BME280;4966;48.112;9.282;2022-11-15T11:11:59;94169.09;;;13.54;72.41
9855;BME280;4966;48.112;9.282;2022-11-15T11:14:28;94173.00;;;13.53;72.98
9855;BME280;4966;48.112;9.282;2022-11-15T11:17:32;94156.97;;;13.81;72.84
9855;BME280;4966;48.112;9.282;2022-11-15T11:20:20;94146.34;;;13.76;73.35
9855;BME280;4966;48.112;9.282;2022-11-15T11:28:48;94136.38;;;14.62;71.01
9855;BME280;4966;48.112;9.282;2022-11-15T11:42:33;94133.31;;;14.67;72.38
9855;BME280;4966;48.112;9.282;2022-11-15T11:50:27;94130.91;;;14.62;74.50
9855;BME280;4966;48.112;9.282;2022-11-15T11:53:05;94129.28;;;14.54;74.12
9855;BME280;4966;48.112;9.282;2022-11-15T11:58:18;94128.44;;;14.13;74.44
9855;BME280;4966;48.112;9.282;2022-11-15T12:00:55;94128.88;;;14.18;75.17
9855;BME280;4966;48.112;9.282;2022-11-15T12:06:10;94134.09;;;13.63;80.15
9855;BME280;4966;48.112;9.282;2022-11-15T12:08:50;94141.59;;;13.70;79.14
9855;BME280;4966;48.112;9.282;2022-11-15T12:11:23;94134.69;;;13.79;77.43
9855;BME280;4966;48.112;9.282;2022-11-15T12:13:59;94135.41;;;14.10;76.85
9855;BME280;4966;48.112;9.282;2022-11-15T12:16:28;94128.75;;;14.41;74.75
9855;BME280;4966;48.112;9.282;2022-11-15T12:18:56;94134.84;;;13.60;76.81
9855;BME280;4966;48.112;9.282;2022-11-15T12:24:18;94132.88;;;13.60;75.98
9855;BME280;4966;48.112;9.282;2022-11-15T12:27:03;94131.28;;;13.29;77.61
9855;BME280;4966;48.112;9.282;2022-11-15T12:29:39;94131.38;;;13.10;79.03
9855;BME280;4966;48.112;9.282;2022-11-15T12:32:16;94138.63;;;13.52;77.98
9855;BME280;4966;48.112;9.282;2022-11-15T12:34:45;94126.03;;;13.44;77.02
9855;BME280;4966;48.112;9.282;2022-11-15T12:42:40;94115.78;;;13.67;73.99
9855;BME280;4966;48.112;9.282;2022-11-15T12:45:33;94114.63;;;13.68;73.10
9855;BME280;4966;48.112;9.282;2022-11-15T13:01:09;94101.59;;;13.88;73.00
9855;BME280;4966;48.112;9.282;2022-11-15T13:03:35;94098.03;;;13.54;74.29
9855;BME280;4966;48.112;9.282;2022-11-15T13:06:38;94087.16;;;13.27;75.08
9855;BME280;4966;48.112;9.282;2022-11-15T13:09:49;94083.69;;;13.30;75.03
9855;BME280;4966;48.112;9.282;2022-11-15T13:11:50;94086.75;;;13.55;74.16
9855;BME280;4966;48.112;9.282;2022-11-15T13:14:38;94076.28;;;13.61;74.06
9855;BME280;4966;48.112;9.282;2022-11-15T13:19:42;94066.69;;;13.74;75.62
9855;BME280;4966;48.112;9.282;2022-11-15T13:22:11;94067.50;;;13.78;75.18
9855;BME280;4966;48.112;9.282;2022-11-15T13:24:55;94061.94;;;13.71;75.09
9855;BME280;4966;48.112;9.282;2022-11-15T13:27:21;94059.69;;;13.47;74.84
9855;BME280;4966;48.112;9.282;2022-11-15T13:29:47;94058.59;;;13.51;75.09
9855;BME280;4966;48.112;9.282;2022-11-15T13:32:14;94060.47;;;13.17;75.60
9855;BME280;4966;48.112;9.282;2022-11-15T13:34:44;94056.72;;;13.29;75.88
9855;BME280;4966;48.112;9.282;2022-11-15T13:37:32;94053.38;;;13.12;77.15
9855;BME280;4966;48.112;9.282;2022-11-15T13:40:20;94055.25;;;13.08;76.12
9855;BME280;4966;48.112;9.282;2022-11-15T13:42:46;94045.09;;;13.05;77.03
9855;BME280;4966;48.112;9.282;2022-11-15T13:45:16;94038.66;;;13.20;76.20
9855;BME280;4966;48.112;9.282;2022-11-15T13:47:42;94032.69;;;13.11;76.42
9855;BME280;4966;48.112;9.282;2022-11-15T13:50:12;94018.06;;;13.27;76.47
9855;BME280;4966;48.112;9.282;2022-11-15T13:52:39;94019.00;;;12.81;77.06
9855;BME280;4966;48.112;9.282;2022-11-15T13:55:18;94014.59;;;12.73;77.85
9855;BME280;4966;48.112;9.282;2022-11-15T13:57:56;94020.84;;;12.73;77.97
9855;BME280;4966;48.112;9.282;2022-11-15T14:03:19;94006.94;;;12.82;76.89
9855;BME280;4966;48.112;9.282;2022-11-15T14:06:09;93998.75;;;12.82;76.80
9855;BME280;4966;48.112;9.282;2022-11-15T14:08:58;94004.56;;;12.81;76.61
9855;BME280;4966;48.112;9.282;2022-11-15T14:11:23;93991.91;;;12.69;76.46
9855;BME280;4966;48.112;9.282;2022-11-15T14:16:44;93982.88;;;12.91;76.94
9855;BME280;4966;48.112;9.282;2022-11-15T14:19:13;93983.81;;;13.03;78.34
9855;BME280;4966;48.112;9.282;2022-11-15T14:24:38;93980.47;;;12.86;76.98
9855;BME280;4966;48.112;9.282;2022-11-15T14:27:24;93982.44;;;12.86;76.42
9855;BME280;4966;48.112;9.282;2022-11-15T14:29:50;93977.84;;;12.93;76.20
9855;BME280;4966;48.112;9.282;2022-11-15T14:34:46;93970.84;;;12.96;76.02
9855;BME280;4966;48.112;9.282;2022-11-15T14:37:21;93971.22;;;12.94;76.43
9855;BME280;4966;48.112;9.282;2022-11-15T14:39:47;93973.59;;;12.96;75.92
9855;BME280;4966;48.112;9.282;2022-11-15T14:42:13;93975.94;;;12.67;76.62
9855;BME280;4966;48.112;9.282;2022-11-15T14:44:38;93978.06;;;12.81;76.90
9855;BME280;4966;48.112;9.282;2022-11-15T14:47:04;93975.69;;;12.80;76.83
9855;BME280;4966;48.112;9.282;2022-11-15T14:49:29;93978.16;;;12.35;79.06
9855;BME280;4966;48.112;9.282;2022-11-15T14:51:54;93975.19;;;12.44;78.39
9855;BME280;4966;48.112;9.282;2022-11-15T14:54:20;93983.38;;;12.44;78.35
9855;BME280;4966;48.112;9.282;2022-11-15T14:56:45;93974.81;;;12.19;80.22
9855;BME280;4966;48.112;9.282;2022-11-15T14:59:10;93985.34;;;12.20;80.03
9855;BME280;4966;48.112;9.282;2022-11-15T15:01:36;93972.91;;;12.23;80.13
9855;BME280;4966;48.112;9.282;2022-11-15T15:04:01;93969.38;;;12.19;79.63
9855;BME280;4966;48.112;9.282;2022-11-15T15:06:26;93974.38;;;12.17;80.48
9855;BME280;4966;48.112;9.282;2022-11-15T15:08:52;93970.34;;;12.07;81.71
9855;BME280;4966;48.112;9.282;2022-11-15T15:11:23;93970.09;;;11.93;82.48
9855;BME280;4966;48.112;9.282;2022-11-15T15:13:48;93962.78;;;11.77;82.71
9855;BME280;4966;48.112;9.282;2022-11-15T15:16:14;93954.56;;;11.97;81.89
9855;BME280;4966;48.112;9.282;2022-11-15T15:18:39;93945.72;;;12.03;81.77
9855;BME280;4966;48.112;9.282;2022-11-15T15:21:24;93953.16;;;11.83;83.32
9855;BME280;4966;48.112;9.282;2022-11-15T15:23:51;93959.75;;;11.82;83.91
9855;BME280;4966;48.112;9.282;2022-11-15T15:26:19;93950.78;;;11.82;83.82
9855;BME280;4966;48.112;9.282;2022-11-15T15:28:44;93953.22;;;11.64;84.47
9855;BME280;4966;48.112;9.282;2022-11-15T15:31:10;93949.53;;;11.76;83.80
9855;BME280;4966;48.112;9.282;2022-11-15T15:33:36;93967.03;;;11.75;83.28
9855;BME280;4966;48.112;9.282;2022-11-15T15:36:02;93947.09;;;11.70;83.51
9855;BME280;4966;48.112;9.282;2022-11-15T15:38:28;93946.69;;;11.68;83.48
9855;BME280;4966;48.112;9.282;2022-11-15T15:40:53;93946.47;;;11.58;83.91
9855;BME280;4966;48.112;9.282;2022-11-15T15:43:19;93948.16;;;11.43;84.63
9855;BME280;4966;48.112;9.282;2022-11-15T15:45:45;93938.41;;;11.42;85.95